sensor_id;sensor_type;location;lat;lon;timestamp;pressure;altitude;pressure_sealevel;temperature;humidity
57086;BME280;42964;42.910;23.792;2023-07-31T00:02:05;97277.03;;;21.40;100.00
57086;BME280;42964;42.910;23.792;2023-07-31T00:07:04;97272.53;;;21.42;100.00
57086;BME280;42964;42.910;23.792;2023-07-31T00:12:05;97248.22;;;21.35;100.00
57086;BME280;42964;42.910;23.792;2023-07-31T00:17:04;97262.25;;;21.53;100.00
57086;BME280;42964;42.910;23.792;2023-07-31T00:22:03;97266.34;;;21.59;100.00
57086;BME280;42964;42.910;23.792;2023-07-31T00:27:03;97256.56;;;21.61;100.00
57086;BME280;42964;42.910;23.792;2023-07-31T00:32:02;97245.31;;;21.57;100.00
57086;BME280;42964;42.910;23.792;2023-07-31T00:37:01;97242.75;;;21.55;100.00
57086;BME280;42964;42.910;23.792;2023-07-31T00:42:00;97239.91;;;21.43;100.00
57086;BME280;42964;42.910;23.792;2023-07-31T00:46:59;97183.44;;;21.12;99.22
57086;BME280;42964;42.910;23.792;2023-07-31T00:51:59;97198.75;;;21.23;98.58
57086;BME280;42964;42.910;23.792;2023-07-31T00:56:58;97188.31;;;21.20;98.36
57086;BME280;42964;42.910;23.792;2023-07-31T01:01:58;97187.31;;;21.05;98.43
57086;BME280;42964;42.910;23.792;2023-07-31T01:12:17;97158.22;;;20.73;99.02
57086;BME280;42964;42.910;23.792;2023-07-31T01:17:16;97197.50;;;20.95;99.23
57086;BME280;42964;42.910;23.792;2023-07-31T01:27:31;97177.72;;;20.86;100.00
57086;BME280;42964;42.910;23.792;2023-07-31T01:32:32;97168.13;;;20.85;99.81
57086;BME280;42964;42.910;23.792;2023-07-31T01:37:31;97171.00;;;20.81;99.80
57086;BME280;42964;42.910;23.792;2023-07-31T01:42:30;97169.53;;;20.75;99.16
57086;BME280;42964;42.910;23.792;2023-07-31T01:47:29;97145.06;;;20.37;98.55
57086;BME280;42964;42.910;23.792;2023-07-31T01:52:28;97185.13;;;20.62;99.37
57086;BME280;42964;42.910;23.792;2023-07-31T01:57:28;97178.28;;;20.58;100.00
57086;BME280;42964;42.910;23.792;2023-07-31T02:02:27;97175.75;;;20.57;100.00
57086;BME280;42964;42.910;23.792;2023-07-31T02:07:26;97179.22;;;20.57;100.00
57086;BME280;42964;42.910;23.792;2023-07-31T02:12:25;97130.06;;;20.21;100.00
57086;BME280;42964;42.910;23.792;2023-07-31T02:17:24;97200.31;;;20.57;100.00
57086;BME280;42964;42.910;23.792;2023-07-31T02:22:23;97210.09;;;20.55;100.00
57086;BME280;42964;42.910;23.792;2023-07-31T02:27:22;97123.91;;;20.03;100.00
57086;BME280;42964;42.910;23.792;2023-07-31T02:32:25;97213.50;;;20.57;100.00
57086;BME280;42964;42.910;23.792;2023-07-31T02:37:25;97218.47;;;20.63;100.00
57086;BME280;42964;42.910;23.792;2023-07-31T02:42:24;97228.69;;;20.69;100.00
57086;BME280;42964;42.910;23.792;2023-07-31T02:47:23;97223.13;;;20.76;100.00
57086;BME280;42964;42.910;23.792;2023-07-31T02:52:22;97208.09;;;20.78;100.00
57086;BME280;42964;42.910;23.792;2023-07-31T02:57:21;97207.31;;;20.76;100.00
57086;BME280;42964;42.910;23.792;2023-07-31T03:02:20;97187.28;;;20.71;100.00
57086;BME280;42964;42.910;23.792;2023-07-31T03:07:19;97188.38;;;20.67;99.37
57086;BME280;42964;42.910;23.792;2023-07-31T03:12:18;97204.97;;;20.52;98.72
57086;BME280;42964;42.910;23.792;2023-07-31T03:17:18;97214.25;;;20.42;98.50
57086;BME280;42964;42.910;23.792;2023-07-31T03:22:17;97219.81;;;20.36;98.92
57086;BME280;42964;42.910;23.792;2023-07-31T03:27:16;97228.50;;;20.38;99.08
57086;BME280;42964;42.910;23.792;2023-07-31T03:32:15;97233.19;;;20.31;99.76
57086;BME280;42964;42.910;23.792;2023-07-31T03:37:14;97238.16;;;20.37;100.00
57086;BME280;42964;42.910;23.792;2023-07-31T03:42:13;97235.50;;;20.37;100.00
57086;BME280;42964;42.910;23.792;2023-07-31T03:47:12;97194.81;;;19.89;100.00
57086;BME280;42964;42.910;23.792;2023-07-31T03:52:11;97238.75;;;20.25;100.00
57086;BME280;42964;42.910;23.792;2023-07-31T03:57:10;97253.44;;;20.31;100.00
57086;BME280;42964;42.910;23.792;2023-07-31T04:02:10;97242.56;;;20.37;100.00
57086;BME280;42964;42.910;23.792;2023-07-31T04:07:09;97249.44;;;20.41;100.00
57086;BME280;42964;42.910;23.792;2023-07-31T04:12:08;97262.88;;;20.54;99.92
57086;BME280;42964;42.910;23.792;2023-07-31T04:17:07;97253.66;;;20.62;98.12
57086;BME280;42964;42.910;23.792;2023-07-31T04:22:05;97255.28;;;20.65;97.97
57086;BME280;42964;42.910;23.792;2023-07-31T04:27:05;97248.88;;;20.70;98.42
57086;BME280;42964;42.910;23.792;2023-07-31T04:32:04;97251.97;;;20.79;98.16
57086;BME280;42964;42.910;23.792;2023-07-31T04:37:03;97247.31;;;20.84;98.42
57086;BME280;42964;42.910;23.792;2023-07-31T04:42:02;97266.09;;;20.95;97.71
57086;BME280;42964;42.910;23.792;2023-07-31T04:47:01;97165.44;;;20.52;97.43
57086;BME280;42964;42.910;23.792;2023-07-31T04:52:01;97209.00;;;20.94;96.81
57086;BME280;42964;42.910;23.792;2023-07-31T04:57:00;97248.41;;;21.32;97.04
57086;BME280;42964;42.910;23.792;2023-07-31T05:01:59;97254.56;;;21.48;95.27
57086;BME280;42964;42.910;23.792;2023-07-31T05:06:58;97250.56;;;21.41;95.08
57086;BME280;42964;42.910;23.792;2023-07-31T05:11:56;97244.66;;;21.36;95.16
57086;BME280;42964;42.910;23.792;2023-07-31T05:16:55;97242.78;;;21.38;95.54
57086;BME280;42964;42.910;23.792;2023-07-31T05:21:54;97241.00;;;21.72;95.15
57086;BME280;42964;42.910;23.792;2023-07-31T05:26:53;97240.00;;;21.90;92.73
57086;BME280;42964;42.910;23.792;2023-07-31T05:31:52;97238.00;;;21.94;91.17
57086;BME280;42964;42.910;23.792;2023-07-31T05:36:51;97240.00;;;21.90;91.74
57086;BME280;42964;42.910;23.792;2023-07-31T05:41:50;97235.84;;;22.02;90.47
57086;BME280;42964;42.910;23.792;2023-07-31T05:46:49;97234.72;;;22.22;90.79
57086;BME280;42964;42.910;23.792;2023-07-31T05:51:48;97239.53;;;22.62;88.78
57086;BME280;42964;42.910;23.792;2023-07-31T05:56:47;97239.50;;;23.08;87.35
57086;BME280;42964;42.910;23.792;2023-07-31T06:01:46;97244.13;;;23.49;84.54
57086;BME280;42964;42.910;23.792;2023-07-31T06:06:45;97232.84;;;23.74;83.00
57086;BME280;42964;42.910;23.792;2023-07-31T06:11:44;97249.69;;;23.87;81.74
57086;BME280;42964;42.910;23.792;2023-07-31T06:16:44;97231.16;;;23.73;79.30
57086;BME280;42964;42.910;23.792;2023-07-31T06:21:43;97267.13;;;23.18;81.43
57086;BME280;42964;42.910;23.792;2023-07-31T06:26:42;97254.63;;;22.75;82.98
57086;BME280;42964;42.910;23.792;2023-07-31T06:31:41;97266.94;;;22.76;82.59
57086;BME280;42964;42.910;23.792;2023-07-31T06:36:40;97268.66;;;22.92;81.80
57086;BME280;42964;42.910;23.792;2023-07-31T06:41:39;97267.56;;;22.96;81.63
57086;BME280;42964;42.910;23.792;2023-07-31T06:46:38;97258.16;;;23.20;79.77
57086;BME280;42964;42.910;23.792;2023-07-31T06:51:37;97268.38;;;23.41;79.28
57086;BME280;42964;42.910;23.792;2023-07-31T06:56:37;97254.06;;;23.74;79.49
57086;BME280;42964;42.910;23.792;2023-07-31T07:01:36;97255.72;;;24.03;77.56
57086;BME280;42964;42.910;23.792;2023-07-31T07:06:35;97252.66;;;24.38;75.13
57086;BME280;42964;42.910;23.792;2023-07-31T07:11:33;97253.56;;;24.92;74.16
57086;BME280;42964;42.910;23.792;2023-07-31T07:16:33;97258.94;;;25.43;73.77
57086;BME280;42964;42.910;23.792;2023-07-31T07:21:31;97254.09;;;25.62;69.97
57086;BME280;42964;42.910;23.792;2023-07-31T07:26:30;97246.84;;;25.77;68.36
57086;BME280;42964;42.910;23.792;2023-07-31T07:31:30;97248.38;;;25.56;59.81
57086;BME280;42964;42.910;23.792;2023-07-31T07:36:29;97253.69;;;25.56;59.13
57086;BME280;42964;42.910;23.792;2023-07-31T07:41:28;97251.50;;;25.73;56.69
57086;BME280;42964;42.910;23.792;2023-07-31T07:46:26;97262.16;;;25.73;55.60
57086;BME280;42964;42.910;23.792;2023-07-31T07:51:25;97256.44;;;25.54;53.52
57086;BME280;42964;42.910;23.792;2023-07-31T07:56:26;97259.50;;;25.86;53.04
57086;BME280;42964;42.910;23.792;2023-07-31T08:01:25;97242.19;;;25.68;52.09
57086;BME280;42964;42.910;23.792;2023-07-31T08:06:24;97260.84;;;25.92;53.13
57086;BME280;42964;42.910;23.792;2023-07-31T08:11:23;97269.41;;;25.71;52.95
57086;BME280;42964;42.910;23.792;2023-07-31T08:16:22;97260.56;;;25.84;51.60
57086;BME280;42964;42.910;23.792;2023-07-31T08:21:21;97261.63;;;26.31;51.68
57086;BME280;42964;42.910;23.792;2023-07-31T08:26:20;97269.28;;;26.35;49.28
57086;BME280;42964;42.910;23.792;2023-07-31T08:31:20;97267.41;;;25.99;48.50
57086;BME280;42964;42.910;23.792;2023-07-31T08:36:19;97269.88;;;26.02;49.29
57086;BME280;42964;42.910;23.792;2023-07-31T08:41:18;97263.59;;;26.16;46.06
57086;BME280;42964;42.910;23.792;2023-07-31T08:46:17;97266.13;;;26.54;46.28
57086;BME280;42964;42.910;23.792;2023-07-31T08:51:17;97256.09;;;26.34;43.68
57086;BME280;42964;42.910;23.792;2023-07-31T08:56:16;97282.06;;;26.17;43.47
57086;BME280;42964;42.910;23.792;2023-07-31T09:01:16;97252.53;;;26.09;44.55
57086;BME280;42964;42.910;23.792;2023-07-31T09:06:18;97264.53;;;26.28;44.61
57086;BME280;42964;42.910;23.792;2023-07-31T09:11:19;97270.63;;;26.41;44.43
57086;BME280;42964;42.910;23.792;2023-07-31T09:16:27;97264.72;;;26.62;44.13
57086;BME280;42964;42.910;23.792;2023-07-31T09:21:26;97255.84;;;27.09;43.58
57086;BME280;42964;42.910;23.792;2023-07-31T09:26:34;97260.41;;;27.42;44.38
57086;BME280;42964;42.910;23.792;2023-07-31T09:31:41;97274.06;;;26.91;44.08
57086;BME280;42964;42.910;23.792;2023-07-31T09:41:47;97230.91;;;26.51;43.62
57086;BME280;42964;42.910;23.792;2023-07-31T09:46:46;97261.88;;;26.76;44.12
57086;BME280;42964;42.910;23.792;2023-07-31T09:51:45;97261.78;;;26.53;43.54
57086;BME280;42964;42.910;23.792;2023-07-31T09:56:46;97263.97;;;26.84;43.79
57086;BME280;42964;42.910;23.792;2023-07-31T10:01:46;97265.78;;;26.83;43.20
57086;BME280;42964;42.910;23.792;2023-07-31T10:06:48;97275.91;;;26.78;42.42
57086;BME280;42964;42.910;23.792;2023-07-31T10:11:55;97267.78;;;26.92;44.59
57086;BME280;42964;42.910;23.792;2023-07-31T10:16:58;97247.06;;;27.31;43.88
57086;BME280;42964;42.910;23.792;2023-07-31T10:21:59;97256.16;;;27.29;44.34
57086;BME280;42964;42.910;23.792;2023-07-31T10:26:59;97255.53;;;26.90;42.25
57086;BME280;42964;42.910;23.792;2023-07-31T10:31:59;97249.41;;;27.12;44.48
57086;BME280;42964;42.910;23.792;2023-07-31T10:37:24;97263.81;;;27.09;44.81
57086;BME280;42964;42.910;23.792;2023-07-31T10:42:31;97268.16;;;27.46;44.67
57086;BME280;42964;42.910;23.792;2023-07-31T10:47:30;97258.94;;;27.38;43.96
57086;BME280;42964;42.910;23.792;2023-07-31T10:52:34;97260.50;;;27.30;43.20
57086;BME280;42964;42.910;23.792;2023-07-31T10:57:35;97265.28;;;27.49;42.96
57086;BME280;42964;42.910;23.792;2023-07-31T11:02:34;97246.38;;;27.63;42.61
57086;BME280;42964;42.910;23.792;2023-07-31T11:07:49;97223.63;;;27.59;43.49
57086;BME280;42964;42.910;23.792;2023-07-31T11:12:48;97232.47;;;27.48;42.83
57086;BME280;42964;42.910;23.792;2023-07-31T11:17:48;97231.38;;;27.85;42.49
57086;BME280;42964;42.910;23.792;2023-07-31T11:22:47;97230.03;;;27.68;41.03
57086;BME280;42964;42.910;23.792;2023-07-31T11:27:46;97226.03;;;27.96;40.39
57086;BME280;42964;42.910;23.792;2023-07-31T11:32:45;97210.47;;;28.35;40.07
57086;BME280;42964;42.910;23.792;2023-07-31T11:37:44;97206.75;;;28.15;40.68
57086;BME280;42964;42.910;23.792;2023-07-31T11:42:44;97209.03;;;28.19;39.99
57086;BME280;42964;42.910;23.792;2023-07-31T11:47:43;97188.72;;;27.51;40.68
57086;BME280;42964;42.910;23.792;2023-07-31T11:52:44;97207.38;;;27.51;41.26
57086;BME280;42964;42.910;23.792;2023-07-31T11:57:45;97201.28;;;27.26;41.93
57086;BME280;42964;42.910;23.792;2023-07-31T12:02:44;97177.66;;;27.33;41.21
57086;BME280;42964;42.910;23.792;2023-07-31T12:07:49;97202.53;;;27.90;41.49
57086;BME280;42964;42.910;23.792;2023-07-31T12:13:05;97180.56;;;28.20;40.53
57086;BME280;42964;42.910;23.792;2023-07-31T12:18:05;97180.78;;;28.17;40.40
57086;BME280;42964;42.910;23.792;2023-07-31T12:23:05;97179.94;;;28.16;40.12
57086;BME280;42964;42.910;23.792;2023-07-31T12:28:04;97176.63;;;28.24;40.11
57086;BME280;42964;42.910;23.792;2023-07-31T12:33:13;97155.19;;;28.25;40.88
57086;BME280;42964;42.910;23.792;2023-07-31T12:38:13;97148.44;;;28.42;39.54
57086;BME280;42964;42.910;23.792;2023-07-31T12:43:13;97130.50;;;28.01;39.87
57086;BME280;42964;42.910;23.792;2023-07-31T12:48:12;97142.94;;;28.23;39.54
57086;BME280;42964;42.910;23.792;2023-07-31T12:53:11;97151.59;;;28.04;39.08
57086;BME280;42964;42.910;23.792;2023-07-31T12:58:10;97164.38;;;27.55;39.52
57086;BME280;42964;42.910;23.792;2023-07-31T13:03:09;97153.81;;;27.65;40.13
57086;BME280;42964;42.910;23.792;2023-07-31T13:08:09;97137.09;;;27.74;39.77
57086;BME280;42964;42.910;23.792;2023-07-31T13:13:09;97123.06;;;27.27;40.06
57086;BME280;42964;42.910;23.792;2023-07-31T13:18:08;97139.56;;;27.98;39.06
57086;BME280;42964;42.910;23.792;2023-07-31T13:23:07;97137.25;;;28.49;38.33
57086;BME280;42964;42.910;23.792;2023-07-31T13:28:06;97139.03;;;29.01;38.28
57086;BME280;42964;42.910;23.792;2023-07-31T13:33:05;97135.84;;;29.07;37.29
57086;BME280;42964;42.910;23.792;2023-07-31T13:38:04;97125.38;;;28.20;37.67
57086;BME280;42964;42.910;23.792;2023-07-31T13:43:04;97123.47;;;28.11;38.32
57086;BME280;42964;42.910;23.792;2023-07-31T13:48:03;97147.19;;;28.03;38.97
57086;BME280;42964;42.910;23.792;2023-07-31T13:53:02;97140.22;;;27.91;38.96
57086;BME280;42964;42.910;23.792;2023-07-31T13:58:01;97138.81;;;28.51;38.75
57086;BME280;42964;42.910;23.792;2023-07-31T14:03:00;97140.53;;;28.94;38.11
57086;BME280;42964;42.910;23.792;2023-07-31T14:07:59;97154.41;;;28.35;37.51
57086;BME280;42964;42.910;23.792;2023-07-31T14:12:58;97143.03;;;28.33;38.48
57086;BME280;42964;42.910;23.792;2023-07-31T14:17:57;97141.50;;;28.51;37.42
57086;BME280;42964;42.910;23.792;2023-07-31T14:22:56;97151.16;;;28.84;37.22
57086;BME280;42964;42.910;23.792;2023-07-31T14:27:55;97113.28;;;28.70;37.01
57086;BME280;42964;42.910;23.792;2023-07-31T14:32:54;97150.78;;;28.89;37.18
57086;BME280;42964;42.910;23.792;2023-07-31T14:37:53;97141.53;;;28.93;37.46
57086;BME280;42964;42.910;23.792;2023-07-31T14:42:52;97140.22;;;28.66;37.80
57086;BME280;42964;42.910;23.792;2023-07-31T14:47:51;97146.44;;;28.56;38.43
57086;BME280;42964;42.910;23.792;2023-07-31T14:52:50;97150.19;;;28.32;38.02
57086;BME280;42964;42.910;23.792;2023-07-31T14:57:49;97145.06;;;27.86;38.67
57086;BME280;42964;42.910;23.792;2023-07-31T15:02:48;97154.44;;;27.57;38.68
57086;BME280;42964;42.910;23.792;2023-07-31T15:07:47;97155.91;;;27.50;39.38
57086;BME280;42964;42.910;23.792;2023-07-31T15:12:46;97077.41;;;26.87;40.26
57086;BME280;42964;42.910;23.792;2023-07-31T15:17:45;97145.09;;;27.63;40.21
57086;BME280;42964;42.910;23.792;2023-07-31T15:22:43;97147.66;;;27.31;40.23
57086;BME280;42964;42.910;23.792;2023-07-31T15:27:43;97148.97;;;27.25;40.39
57086;BME280;42964;42.910;23.792;2023-07-31T15:32:42;97148.22;;;27.01;40.50
57086;BME280;42964;42.910;23.792;2023-07-31T15:37:44;97155.00;;;26.93;40.98
57086;BME280;42964;42.910;23.792;2023-07-31T15:42:43;97153.03;;;26.84;40.87
57086;BME280;42964;42.910;23.792;2023-07-31T15:47:41;97143.50;;;27.04;40.60
57086;BME280;42964;42.910;23.792;2023-07-31T15:52:40;97165.59;;;26.82;40.37
57086;BME280;42964;42.910;23.792;2023-07-31T15:57:39;97168.66;;;26.65;41.33
57086;BME280;42964;42.910;23.792;2023-07-31T16:02:38;97177.00;;;26.60;41.37
57086;BME280;42964;42.910;23.792;2023-07-31T16:07:40;97181.97;;;26.65;41.34
57086;BME280;42964;42.910;23.792;2023-07-31T16:12:39;97173.28;;;26.39;41.85
57086;BME280;42964;42.910;23.792;2023-07-31T16:17:38;97186.91;;;26.34;41.89
57086;BME280;42964;42.910;23.792;2023-07-31T16:22:37;97182.91;;;26.28;42.54
57086;BME280;42964;42.910;23.792;2023-07-31T16:27:36;97198.53;;;26.33;42.88
57086;BME280;42964;42.910;23.792;2023-07-31T16:32:35;97186.84;;;26.23;41.78
57086;BME280;42964;42.910;23.792;2023-07-31T16:37:35;97196.31;;;26.27;41.58
57086;BME280;42964;42.910;23.792;2023-07-31T16:42:35;97191.63;;;26.30;41.79
57086;BME280;42964;42.910;23.792;2023-07-31T16:47:35;97206.97;;;26.27;41.18
57086;BME280;42964;42.910;23.792;2023-07-31T16:52:34;97207.25;;;25.98;41.45
57086;BME280;42964;42.910;23.792;2023-07-31T16:57:32;97208.31;;;25.95;41.43
57086;BME280;42964;42.910;23.792;2023-07-31T17:02:31;97215.97;;;25.87;41.85
57086;BME280;42964;42.910;23.792;2023-07-31T17:07:30;97166.41;;;25.62;41.86
57086;BME280;42964;42.910;23.792;2023-07-31T17:12:29;97200.22;;;25.60;41.61
57086;BME280;42964;42.910;23.792;2023-07-31T17:17:28;97214.03;;;25.65;41.33
57086;BME280;42964;42.910;23.792;2023-07-31T17:22:27;97211.13;;;25.68;41.00
57086;BME280;42964;42.910;23.792;2023-07-31T17:27:26;97208.78;;;25.77;40.96
57086;BME280;42964;42.910;23.792;2023-07-31T17:32:26;97212.84;;;25.69;41.28
57086;BME280;42964;42.910;23.792;2023-07-31T17:37:25;97218.16;;;25.69;41.62
57086;BME280;42964;42.910;23.792;2023-07-31T17:42:24;97223.91;;;25.63;41.76
57086;BME280;42964;42.910;23.792;2023-07-31T17:47:23;97232.53;;;25.54;42.29
57086;BME280;42964;42.910;23.792;2023-07-31T17:52:22;97221.22;;;25.38;42.91
57086;BME280;42964;42.910;23.792;2023-07-31T17:57:21;97224.13;;;25.35;42.66
57086;BME280;42964;42.910;23.792;2023-07-31T18:02:20;97236.75;;;25.18;43.38
57086;BME280;42964;42.910;23.792;2023-07-31T18:07:19;97233.09;;;24.94;44.70
57086;BME280;42964;42.910;23.792;2023-07-31T18:12:18;97237.59;;;24.79;45.76
57086;BME280;42964;42.910;23.792;2023-07-31T18:17:17;97249.53;;;24.59;46.57
57086;BME280;42964;42.910;23.792;2023-07-31T18:22:15;97260.59;;;24.38;47.70
57086;BME280;42964;42.910;23.792;2023-07-31T18:27:16;97263.09;;;24.13;48.21
57086;BME280;42964;42.910;23.792;2023-07-31T18:32:16;97271.38;;;23.94;49.19
57086;BME280;42964;42.910;23.792;2023-07-31T18:37:15;97271.66;;;23.75;49.82
57086;BME280;42964;42.910;23.792;2023-07-31T18:42:14;97282.78;;;23.51;50.33
57086;BME280;42964;42.910;23.792;2023-07-31T18:47:13;97287.47;;;23.32;50.58
57086;BME280;42964;42.910;23.792;2023-07-31T18:52:12;97296.91;;;23.21;51.36
57086;BME280;42964;42.910;23.792;2023-07-31T18:57:11;97305.38;;;22.98;52.61
57086;BME280;42964;42.910;23.792;2023-07-31T19:02:10;97310.34;;;22.72;52.67
57086;BME280;42964;42.910;23.792;2023-07-31T19:07:09;97310.69;;;22.50;53.19
57086;BME280;42964;42.910;23.792;2023-07-31T19:12:08;97316.47;;;22.41;53.37
57086;BME280;42964;42.910;23.792;2023-07-31T19:17:07;97306.78;;;22.26;53.63
57086;BME280;42964;42.910;23.792;2023-07-31T19:22:06;97321.94;;;22.22;54.57
57086;BME280;42964;42.910;23.792;2023-07-31T19:27:05;97326.88;;;22.12;54.75
57086;BME280;42964;42.910;23.792;2023-07-31T19:32:04;97314.28;;;22.02;55.26
57086;BME280;42964;42.910;23.792;2023-07-31T19:37:03;97312.41;;;21.86;56.28
57086;BME280;42964;42.910;23.792;2023-07-31T19:42:03;97312.47;;;21.69;56.88
57086;BME280;42964;42.910;23.792;2023-07-31T19:47:02;97317.28;;;21.61;57.50
57086;BME280;42964;42.910;23.792;2023-07-31T19:52:01;97318.72;;;21.50;58.23
57086;BME280;42964;42.910;23.792;2023-07-31T19:56:59;97317.19;;;21.29;59.96
57086;BME280;42964;42.910;23.792;2023-07-31T20:01:58;97328.19;;;21.20;59.95
57086;BME280;42964;42.910;23.792;2023-07-31T20:06:57;97308.91;;;21.00;60.09
57086;BME280;42964;42.910;23.792;2023-07-31T20:11:56;97330.50;;;21.08;60.34
57086;BME280;42964;42.910;23.792;2023-07-31T20:16:56;97333.66;;;20.98;61.21
57086;BME280;42964;42.910;23.792;2023-07-31T20:21:55;97333.97;;;20.91;62.56
57086;BME280;42964;42.910;23.792;2023-07-31T20:26:54;97335.28;;;20.83;63.23
57086;BME280;42964;42.910;23.792;2023-07-31T20:31:53;97340.00;;;20.76;63.44
57086;BME280;42964;42.910;23.792;2023-07-31T20:36:52;97333.31;;;20.69;64.16
57086;BME280;42964;42.910;23.792;2023-07-31T20:41:51;97342.22;;;20.66;64.84
57086;BME280;42964;42.910;23.792;2023-07-31T20:46:50;97338.81;;;20.64;66.04
57086;BME280;42964;42.910;23.792;2023-07-31T20:51:49;97332.59;;;20.08;69.27
57086;BME280;42964;42.910;23.792;2023-07-31T20:56:48;97361.91;;;20.21;69.37
57086;BME280;42964;42.910;23.792;2023-07-31T21:01:49;97357.53;;;20.20;69.72
57086;BME280;42964;42.910;23.792;2023-07-31T21:06:48;97346.13;;;19.82;70.87
57086;BME280;42964;42.910;23.792;2023-07-31T21:11:47;97365.44;;;19.81;70.86
57086;BME280;42964;42.910;23.792;2023-07-31T21:16:46;97368.88;;;19.83;70.98
57086;BME280;42964;42.910;23.792;2023-07-31T21:21:44;97254.19;;;19.17;70.42
57086;BME280;42964;42.910;23.792;2023-07-31T21:26:43;97369.72;;;19.83;70.63
57086;BME280;42964;42.910;23.792;2023-07-31T21:31:42;97368.28;;;19.76;71.68
57086;BME280;42964;42.910;23.792;2023-07-31T21:36:41;97366.75;;;19.72;71.83
57086;BME280;42964;42.910;23.792;2023-07-31T21:41:41;97368.03;;;19.62;72.30
57086;BME280;42964;42.910;23.792;2023-07-31T21:46:40;97366.53;;;19.56;72.81
57086;BME280;42964;42.910;23.792;2023-07-31T21:51:39;97363.94;;;19.55;72.55
57086;BME280;42964;42.910;23.792;2023-07-31T21:56:38;97355.59;;;19.45;72.93
57086;BME280;42964;42.910;23.792;2023-07-31T22:01:37;97365.50;;;19.38;73.69
57086;BME280;42964;42.910;23.792;2023-07-31T22:06:36;97349.78;;;19.37;73.47
57086;BME280;42964;42.910;23.792;2023-07-31T22:11:35;97355.47;;;19.28;73.79
57086;BME280;42964;42.910;23.792;2023-07-31T22:16:34;97336.94;;;19.09;74.68
57086;BME280;42964;42.910;23.792;2023-07-31T22:21:33;97360.50;;;19.12;75.99
57086;BME280;42964;42.910;23.792;2023-07-31T22:26:32;97355.63;;;19.02;76.97
57086;BME280;42964;42.910;23.792;2023-07-31T22:31:31;97360.31;;;18.74;78.07
57086;BME280;42964;42.910;23.792;2023-07-31T22:36:30;97358.81;;;18.67;78.63
57086;BME280;42964;42.910;23.792;2023-07-31T22:41:29;97356.25;;;18.65;78.34
57086;BME280;42964;42.910;23.792;2023-07-31T22:46:28;97355.50;;;18.61;79.00
57086;BME280;42964;42.910;23.792;2023-07-31T22:51:27;97362.56;;;18.59;78.52
57086;BME280;42964;42.910;23.792;2023-07-31T22:56:26;97353.91;;;18.57;78.46
57086;BME280;42964;42.910;23.792;2023-07-31T23:01:25;97352.81;;;18.41;80.54
57086;BME280;42964;42.910;23.792;2023-07-31T23:06:25;97350.94;;;18.43;80.40
57086;BME280;42964;42.910;23.792;2023-07-31T23:11:24;97338.00;;;18.38;80.73
57086;BME280;42964;42.910;23.792;2023-07-31T23:16:25;97332.81;;;18.37;80.76
57086;BME280;42964;42.910;23.792;2023-07-31T23:21:24;97326.72;;;18.36;81.54
57086;BME280;42964;42.910;23.792;2023-07-31T23:26:23;97332.94;;;18.34;81.38
57086;BME280;42964;42.910;23.792;2023-07-31T23:31:22;97330.41;;;18.31;81.22
57086;BME280;42964;42.910;23.792;2023-07-31T23:36:21;97327.00;;;18.29;81.19
57086;BME280;42964;42.910;23.792;2023-07-31T23:41:20;97334.31;;;18.21;81.22
57086;BME280;42964;42.910;23.792;2023-07-31T23:46:19;97333.53;;;18.18;81.54
57086;BME280;42964;42.910;23.792;2023-07-31T23:51:18;97313.44;;;18.17;81.56
57086;BME280;42964;42.910;23.792;2023-07-31T23:56:17;97320.53;;;18.15;81.71
